Providence, Rhode Island
Traffic Map
Current Weather Conditions
Providence, Rhode Island
Clear
Clear
65°
Feels Like: 65°
Wind Chill: 65° Ceiling: Unl
Heat Index: 65° Visibility: 10mi
Dew Point: 58° Wind: 5mph
Humidity: 78% Direction: 280° (W)
Pressure: 29.98in Gusts: 0mph
Raw Report DataKPVD 010651Z AUTO 28004KT 10SM CLR 18/14 A2998 RMK AO2 SLP152 T01830144
Traffic Incident Summary
Active as of:
Severity:
Category:
InformationThere was an issue retrieving the traffic information for this location. Please try a different location or try again shortly.
Advertisements
Track Severe Weather on mobile